Time;durP1;ratioP1;P1;durP2;ratioP2;P2;SDS_P1;SDS_P2;PMS_P1;PMS_P2;Temp;Humidity;BMP_temperature;BMP_pressure;BME280_temperature;BME280_humidity;BME280_pressure;Samples;Min_cycle;Max_cycle;Signal;HPM_P1;HPM_P2
2023/01/06 00:01:33;;;;;;;8.32;5.35;;;;;;;9.30;100.00;101721.13;5030770;28;20515;-74
2023/01/06 00:03:59;;;;;;;12.25;6.00;;;;;;;9.33;100.00;101723.72;5011645;28;20045;-73
2023/01/06 00:06:26;;;;;;;10.50;6.22;;;;;;;9.34;100.00;101733.59;5028917;28;20056;-72
2023/01/06 00:08:56;;;;;;;8.00;4.22;;;;;;;9.33;100.00;101724.56;5028624;28;20040;-72
2023/01/06 00:11:22;;;;;;;10.40;5.32;;;;;;;9.34;100.00;101720.03;5012664;28;20427;-73
2023/01/06 00:13:48;;;;;;;13.18;5.07;;;;;;;9.33;100.00;101713.72;5034251;28;20136;-73
2023/01/06 00:16:16;;;;;;;11.38;5.03;;;;;;;9.36;100.00;101716.25;5039881;28;20399;-73
2023/01/06 00:18:42;;;;;;;12.65;5.45;;;;;;;9.34;100.00;101712.75;5042662;28;20504;-72
2023/01/06 00:21:08;;;;;;;11.25;4.55;;;;;;;9.36;100.00;101709.94;5029081;28;20068;-72
2023/01/06 00:23:34;;;;;;;11.55;4.90;;;;;;;9.36;100.00;101710.81;5027969;28;20401;-73
2023/01/06 00:26:01;;;;;;;9.25;4.63;;;;;;;9.35;100.00;101711.78;5028451;28;20037;-74
2023/01/06 00:28:26;;;;;;;6.82;3.95;;;;;;;9.36;100.00;101707.22;5030267;28;20501;-73
2023/01/06 00:30:52;;;;;;;6.60;3.83;;;;;;;9.37;100.00;101706.25;5039551;28;20057;-73
2023/01/06 00:33:17;;;;;;;10.10;3.92;;;;;;;9.38;100.00;101711.63;5045951;28;20056;-73
2023/01/06 00:35:43;;;;;;;9.93;3.92;;;;;;;9.41;100.00;101700.59;5048501;28;20117;-73
2023/01/06 00:38:08;;;;;;;7.22;3.50;;;;;;;9.41;100.00;101694.28;5049167;28;20040;-73
2023/01/06 00:40:35;;;;;;;8.45;3.03;;;;;;;9.40;100.00;101698.84;5036033;28;20060;-72
2023/01/06 00:43:01;;;;;;;7.72;3.50;;;;;;;9.41;100.00;101699.72;5027112;28;20045;-72
2023/01/06 00:45:26;;;;;;;6.68;2.70;;;;;;;9.41;100.00;101703.28;5029598;28;20112;-72
2023/01/06 00:47:52;;;;;;;6.95;2.65;;;;;;;9.42;100.00;101696.06;5028545;28;20073;-72
2023/01/06 00:50:17;;;;;;;4.25;2.40;;;;;;;9.43;100.00;101711.38;5010955;28;20048;-73
2023/01/06 00:52:43;;;;;;;4.15;3.05;;;;;;;9.40;100.00;101698.84;5028537;28;20025;-73
2023/01/06 00:55:08;;;;;;;6.38;2.63;;;;;;;9.38;100.00;101700.75;5027469;28;20080;-73
2023/01/06 00:57:34;;;;;;;4.80;2.95;;;;;;;9.39;100.00;101701.63;5027066;28;20049;-73
2023/01/06 00:59:59;;;;;;;7.15;3.20;;;;;;;9.38;100.00;101700.75;5040390;28;20083;-72
2023/01/06 01:02:25;;;;;;;5.28;3.13;;;;;;;9.39;100.00;101704.34;5028034;28;20409;-73
2023/01/06 01:04:50;;;;;;;5.65;2.90;;;;;;;9.37;100.00;101699.03;5027219;28;20047;-72
2023/01/06 01:07:15;;;;;;;6.40;3.10;;;;;;;9.40;100.00;101695.25;5028211;28;20140;-73
2023/01/06 01:09:40;;;;;;;7.53;3.83;;;;;;;9.40;100.00;101696.13;5027226;28;20123;-72
2023/01/06 01:12:10;;;;;;;7.35;2.80;;;;;;;9.40;100.00;101687.97;5047986;28;20390;-73
2023/01/06 01:14:50;;;;;;;13.00;3.97;;;;;;;9.41;100.00;101695.16;5033973;28;20034;-73
2023/01/06 01:17:24;;;;;;;4.20;2.90;;;;;;;9.43;100.00;101695.09;5045150;28;20041;-73
2023/01/06 01:19:53;;;;;;;6.82;3.00;;;;;;;9.41;100.00;101697.88;5048035;28;20392;-72
2023/01/06 01:22:19;;;;;;;8.38;3.50;;;;;;;9.41;100.00;101697.00;5047776;28;20041;-72
2023/01/06 01:24:44;;;;;;;6.43;3.45;;;;;;;9.43;100.00;101701.41;5043497;28;20041;-73
2023/01/06 01:27:10;;;;;;;6.65;2.85;;;;;;;9.43;100.00;101703.22;5026339;28;20420;-72
2023/01/06 01:29:35;;;;;;;4.22;2.80;;;;;;;9.41;100.00;101689.72;5037308;28;20047;-72
2023/01/06 01:32:01;;;;;;;7.50;3.20;;;;;;;9.40;100.00;101692.53;5030970;28;20444;-73
2023/01/06 01:34:27;;;;;;;7.10;2.92;;;;;;;9.40;100.00;101692.53;5028448;28;20580;-76
2023/01/06 01:36:53;;;;;;;6.93;3.08;;;;;;;9.39;100.00;101677.19;5026919;28;20037;-72
2023/01/06 01:39:21;;;;;;;7.13;2.33;;;;;;;9.40;100.00;101668.97;5009935;28;20397;-73
2023/01/06 01:41:48;;;;;;;6.80;2.83;;;;;;;9.39;100.00;101671.78;5025742;28;20037;-74
2023/01/06 01:44:47;;;;;;;4.80;2.30;;;;;;;9.39;100.00;101669.06;5031202;28;20037;-73
2023/01/06 01:47:20;;;;;;;7.95;2.58;;;;;;;9.36;100.00;101672.78;5028211;28;20029;-73
2023/01/06 01:49:50;;;;;;;7.53;2.55;;;;;;;9.36;100.00;101655.63;5026454;28;20037;-73
2023/01/06 01:52:17;;;;;;;6.88;3.03;;;;;;;9.34;100.00;101653.00;5026118;28;20033;-73
2023/01/06 01:54:43;;;;;;;4.32;2.40;;;;;;;9.32;100.00;101652.19;5026609;28;20062;-72
2023/01/06 01:57:17;;;;;;;3.72;2.08;;;;;;;9.34;100.00;101647.56;5027039;28;20037;-73
2023/01/06 01:59:44;;;;;;;7.78;2.28;;;;;;;9.36;100.00;101652.91;5027590;28;20045;-72
2023/01/06 02:02:13;;;;;;;7.18;2.65;;;;;;;9.36;100.00;101652.91;5027752;28;20033;-73
2023/01/06 02:04:41;;;;;;;5.40;2.47;;;;;;;9.35;100.00;101649.31;5025880;28;20206;-72
2023/01/06 02:07:07;;;;;;;2.65;1.83;;;;;;;9.38;100.00;101645.56;5033369;28;20542;-72
2023/01/06 02:09:53;;;;;;;8.90;2.05;;;;;;;9.38;100.00;101649.16;5046260;28;20357;-74
2023/01/06 02:12:18;;;;;;;3.35;1.65;;;;;;;9.36;100.00;101644.75;5046851;28;20058;-72
2023/01/06 02:14:44;;;;;;;4.97;2.20;;;;;;;9.35;100.00;101643.91;5028958;28;20037;-72
2023/01/06 02:17:28;;;;;;;3.58;2.03;;;;;;;9.36;100.00;101659.22;5026090;28;20129;-73
2023/01/06 02:20:10;;;;;;;6.30;2.00;;;;;;;9.35;100.00;101645.72;5026168;28;20064;-72
2023/01/06 02:22:42;;;;;;;;;;;;;;;9.36;100.00;101645.63;5040746;28;20041;-73
2023/01/06 02:25:29;;;;;;;2.67;1.63;;;;;;;9.35;100.00;101649.31;5029347;28;19978;-72
2023/01/06 02:28:22;;;;;;;7.28;2.20;;;;;;;9.37;100.00;101652.84;5042053;28;20102;-72
2023/01/06 02:31:22;;;;;;;5.38;1.75;;;;;;;9.39;100.00;101637.34;5032112;28;20598;-73
2023/01/06 02:34:26;;;;;;;3.78;1.75;;;;;;;9.39;100.00;101625.59;5009111;28;20468;-72
2023/01/06 02:37:14;;;;;;;6.65;1.63;;;;;;;9.37;100.00;101617.56;5018031;28;20041;-72
2023/01/06 02:40:07;;;;;;;7.28;1.95;;;;;;;9.37;100.00;101614.84;5026936;28;20574;-72
2023/01/06 02:42:59;;;;;;;5.43;1.55;;;;;;;9.38;100.00;101610.28;5023409;28;20033;-73
2023/01/06 02:45:43;;;;;;;4.03;1.63;;;;;;;9.38;100.00;101605.72;5026421;28;20107;-72
2023/01/06 02:48:20;;;;;;;3.40;1.20;;;;;;;9.37;100.00;101601.25;5026844;28;20029;-73
2023/01/06 02:51:00;;;;;;;4.57;1.30;;;;;;;9.37;100.00;101600.34;5024597;28;20488;-74
2023/01/06 02:53:38;;;;;;;5.00;1.35;;;;;;;9.36;100.00;101596.75;5025788;28;20104;-72
2023/01/06 02:56:04;;;;;;;1.92;1.15;;;;;;;9.38;100.00;101588.56;5025319;28;20440;-72
2023/01/06 02:58:39;;;;;;;3.28;1.70;;;;;;;9.38;100.00;101583.13;5024473;28;20041;-72
2023/01/06 03:01:12;;;;;;;3.53;1.40;;;;;;;9.39;99.61;101593.00;5025270;28;20080;-74
2023/01/06 03:03:42;;;;;;;4.18;1.60;;;;;;;9.39;99.79;101587.59;5008808;28;20040;-73
2023/01/06 03:06:13;;;;;;;5.65;1.42;;;;;;;9.37;99.54;101582.25;5024941;28;20098;-72
2023/01/06 03:08:41;;;;;;;3.83;1.37;;;;;;;9.39;99.50;101590.28;5025373;28;20042;-73
2023/01/06 03:11:07;;;;;;;4.18;1.38;;;;;;;9.38;99.54;101583.13;5026475;28;20040;-72
2023/01/06 03:13:49;;;;;;;7.40;1.77;;;;;;;9.39;99.28;101580.31;5024232;28;20040;-72
2023/01/06 03:16:16;;;;;;;2.42;1.20;;;;;;;9.37;98.89;101573.19;5026542;28;20445;-73
2023/01/06 03:18:44;;;;;;;4.65;1.50;;;;;;;9.39;98.63;101579.44;5024746;28;20021;-72
2023/01/06 03:21:14;;;;;;;3.30;1.48;;;;;;;9.38;98.47;101567.69;5025866;28;20029;-74
2023/01/06 03:23:41;;;;;;;2.67;1.40;;;;;;;9.39;98.38;101566.72;5025129;28;20041;-74
2023/01/06 03:26:08;;;;;;;4.85;1.50;;;;;;;9.39;98.33;101574.00;5025349;28;20030;-72
2023/01/06 03:28:33;;;;;;;3.67;1.23;;;;;;;9.37;98.23;101565.94;5025346;28;20029;-72
2023/01/06 03:31:12;;;;;;;4.10;1.50;;;;;;;9.40;98.25;101573.03;5036423;28;20026;-72
2023/01/06 03:34:03;;;;;;;2.63;1.40;;;;;;;9.42;98.08;101574.72;5043748;28;20029;-73
2023/01/06 03:36:32;;;;;;;16.27;2.53;;;;;;;9.41;98.14;101572.94;5036224;28;20148;-74
2023/01/06 03:39:06;;;;;;;3.30;1.60;;;;;;;9.41;98.23;101559.34;5026115;28;20567;-73
2023/01/06 03:44:34;;;;;;;3.97;1.58;;;;;;;9.39;98.27;101544.13;5024331;28;20071;-72
2023/01/06 03:47:06;;;;;;;6.18;2.08;;;;;;;9.40;97.85;101562.16;5023437;28;20068;-72
2023/01/06 03:49:45;;;;;;;5.30;1.80;;;;;;;9.40;98.26;101571.19;5044490;28;20060;-73
2023/01/06 03:52:22;;;;;;;3.42;1.40;;;;;;;9.40;98.21;101554.91;5045465;28;20075;-72
2023/01/06 03:54:54;;;;;;;4.75;1.73;;;;;;;9.43;97.81;101551.16;5044905;28;20055;-73
2023/01/06 03:57:31;;;;;;;1.98;1.40;;;;;;;9.43;97.98;101549.31;5027510;28;20430;-73
2023/01/06 04:00:20;;;;;;;2.03;1.50;;;;;;;9.45;98.54;101551.91;5037485;28;20515;-75
2023/01/06 04:02:52;;;;;;;5.78;1.60;;;;;;;9.45;98.25;101546.50;5042288;28;20234;-72
2023/01/06 04:05:24;;;;;;;2.33;1.63;;;;;;;9.45;97.89;101533.78;5026063;28;20558;-73
2023/01/06 04:07:50;;;;;;;2.08;1.40;;;;;;;9.46;98.34;101542.81;5028104;28;20061;-72
2023/01/06 04:10:18;;;;;;;5.65;1.67;;;;;;;9.44;98.38;101531.16;5029978;28;20992;-73
2023/01/06 04:12:46;;;;;;;2.65;1.55;;;;;;;9.44;98.71;101529.31;5027886;28;20053;-72
2023/01/06 04:15:21;;;;;;;3.83;1.60;;;;;;;9.48;98.40;101526.44;5031151;28;20416;-73
2023/01/06 04:17:48;;;;;;;5.07;1.40;;;;;;;9.47;98.65;101517.41;5028099;28;20432;-72
2023/01/06 04:20:17;;;;;;;3.58;1.77;;;;;;;9.46;98.46;101512.94;5027578;28;20514;-72
2023/01/06 04:22:43;;;;;;;1.83;1.40;;;;;;;9.47;98.26;101509.28;5027323;28;20041;-73
2023/01/06 04:25:10;;;;;;;1.65;1.10;;;;;;;9.48;98.55;101510.16;5029198;28;20525;-74
2023/01/06 04:27:36;;;;;;;5.68;1.40;;;;;;;9.49;98.14;101509.19;5010632;28;20532;-75
2023/01/06 04:30:04;;;;;;;4.22;1.50;;;;;;;9.51;97.98;101504.53;5030282;28;20820;-72
2023/01/06 04:32:29;;;;;;;7.40;1.75;;;;;;;9.52;98.08;101504.44;5044198;28;20123;-72
2023/01/06 04:34:55;;;;;;;6.38;1.63;;;;;;;9.50;98.05;101481.91;5011530;28;20117;-72
2023/01/06 04:37:21;;;;;;;3.38;1.50;;;;;;;9.53;98.13;101480.88;5027058;28;20437;-72
2023/01/06 04:39:47;;;;;;;2.35;1.25;;;;;;;9.51;98.29;101486.38;5028670;28;20461;-72
2023/01/06 04:42:12;;;;;;;5.57;1.55;;;;;;;9.51;97.65;101480.06;5028503;28;20060;-73
2023/01/06 04:44:38;;;;;;;4.38;1.20;;;;;;;9.53;97.74;101483.59;5032103;28;20473;-73
2023/01/06 04:47:03;;;;;;;5.32;1.55;;;;;;;9.51;98.03;101471.91;5042715;28;20024;-73
2023/01/06 04:49:28;;;;;;;3.17;1.13;;;;;;;9.54;97.31;101458.19;5048453;28;20040;-73
2023/01/06 04:51:54;;;;;;;2.92;1.38;;;;;;;9.53;97.79;101475.44;5047500;28;20044;-73
2023/01/06 04:54:19;;;;;;;2.53;1.27;;;;;;;9.53;97.97;101483.59;5032728;28;20096;-72
2023/01/06 04:56:45;;;;;;;1.90;1.00;;;;;;;9.51;97.46;101470.09;5027425;28;20038;-72
2023/01/06 04:59:10;;;;;;;4.00;1.10;;;;;;;9.55;97.74;101476.22;5032359;28;20392;-72
2023/01/06 05:01:36;;;;;;;3.50;1.02;;;;;;;9.54;97.76;101469.91;5028537;28;20044;-72
2023/01/06 05:04:02;;;;;;;2.92;1.08;;;;;;;9.52;97.78;101461.00;5028058;28;20067;-73
2023/01/06 05:06:27;;;;;;;3.03;1.15;;;;;;;9.53;97.90;101461.88;5028619;28;20223;-75
2023/01/06 05:08:52;;;;;;;3.92;1.35;;;;;;;9.54;97.84;101463.59;5027536;28;20040;-72
2023/01/06 05:11:20;;;;;;;2.22;0.90;;;;;;;9.53;97.24;101457.31;5028559;28;20041;-72
2023/01/06 05:13:46;;;;;;;4.93;1.10;;;;;;;9.55;96.91;101459.91;5032307;28;20040;-72
2023/01/06 05:16:30;;;;;;;1.33;1.08;;;;;;;9.57;97.41;101455.28;5027068;28;20056;-72
2023/01/06 05:18:55;;;;;;;1.05;0.93;;;;;;;9.56;96.94;101439.94;5010553;28;20042;-74
2023/01/06 05:21:25;;;;;;;4.30;1.10;;;;;;;9.56;97.22;101454.41;5027601;28;20032;-72
2023/01/06 05:23:52;;;;;;;3.28;1.42;;;;;;;9.58;97.01;101459.75;5028161;28;20033;-72
2023/01/06 05:26:22;;;;;;;2.28;1.20;;;;;;;9.57;96.81;101458.88;5026872;28;20034;-73
2023/01/06 05:28:48;;;;;;;2.80;1.13;;;;;;;9.56;96.97;101449.00;5027144;28;20037;-72
2023/01/06 05:31:13;;;;;;;1.67;0.98;;;;;;;9.56;97.22;101459.84;5036034;28;20526;-72
2023/01/06 05:33:39;;;;;;;1.67;1.10;;;;;;;9.56;97.52;101468.00;5027843;28;20539;-73
2023/01/06 05:36:11;;;;;;;3.80;1.10;;;;;;;9.57;97.21;101460.72;5027380;28;20033;-74
2023/01/06 05:38:36;;;;;;;1.52;1.20;;;;;;;9.57;97.54;101469.75;5027508;28;20037;-72
2023/01/06 05:41:02;;;;;;;4.30;1.42;;;;;;;9.56;97.45;101472.53;5026449;28;20117;-72
2023/01/06 05:43:28;;;;;;;4.18;1.20;;;;;;;9.58;97.27;101471.50;5026973;28;20033;-73
2023/01/06 05:45:54;;;;;;;2.40;1.38;;;;;;;9.56;97.32;101465.28;5026539;28;20026;-72
2023/01/06 05:48:20;;;;;;;2.60;1.30;;;;;;;9.58;97.17;101468.78;5027817;28;20033;-74
2023/01/06 05:50:45;;;;;;;4.63;1.50;;;;;;;9.58;97.17;101466.06;5026986;28;20116;-74
2023/01/06 05:53:11;;;;;;;2.25;1.58;;;;;;;9.59;97.33;101461.50;5026220;28;20121;-72
2023/01/06 05:55:36;;;;;;;1.58;1.00;;;;;;;9.60;97.44;101455.09;5009316;28;20025;-73
2023/01/06 05:58:01;;;;;;;2.63;1.33;;;;;;;9.61;97.09;101462.31;5026621;28;20536;-73
2023/01/06 06:00:27;;;;;;;2.15;1.10;;;;;;;9.59;96.86;101465.09;5028033;28;20469;-73
2023/01/06 06:02:53;;;;;;;1.40;1.10;;;;;;;9.62;96.75;101464.91;5048130;28;20032;-72
2023/01/06 06:05:19;;;;;;;2.33;2.10;;;;;;;9.61;97.26;101465.88;5046812;28;20036;-74
2023/01/06 06:07:51;;;;;;;3.17;1.40;;;;;;;9.63;97.44;101463.94;5030133;28;20170;-72
2023/01/06 06:10:16;;;;;;;1.88;1.75;;;;;;;9.63;97.57;101473.94;5027476;28;20508;-73
2023/01/06 06:12:42;;;;;;;4.85;1.55;;;;;;;9.59;97.74;101467.81;5026655;28;20033;-73
2023/01/06 06:15:07;;;;;;;4.10;1.40;;;;;;;9.59;97.92;101464.22;5025543;28;20052;-75
2023/01/06 06:17:33;;;;;;;2.78;1.30;;;;;;;9.58;98.22;101474.22;5041518;28;20042;-73
2023/01/06 06:19:58;;;;;;;1.70;1.35;;;;;;;9.58;97.58;101467.91;5026725;28;20048;-74
2023/01/06 06:22:23;;;;;;;6.45;1.40;;;;;;;9.57;97.91;101461.59;5027048;28;20042;-73
2023/01/06 06:24:49;;;;;;;4.60;1.55;;;;;;;9.55;98.11;101466.22;5027228;28;20038;-72
2023/01/06 06:27:14;;;;;;;4.32;1.83;;;;;;;9.57;98.26;101467.03;5024508;28;20047;-72
2023/01/06 06:29:39;;;;;;;2.13;1.30;;;;;;;9.58;98.18;101468.78;5029761;28;20037;-72
2023/01/06 06:32:05;;;;;;;3.28;1.27;;;;;;;9.58;98.09;101465.19;5032070;28;20032;-72
2023/01/06 06:34:30;;;;;;;2.17;1.33;;;;;;;9.59;98.33;101469.66;5040672;28;20044;-72
2023/01/06 06:36:55;;;;;;;1.98;1.50;;;;;;;9.60;97.74;101468.66;5027090;28;20126;-72
2023/01/06 06:39:21;;;;;;;3.72;1.35;;;;;;;9.61;97.76;101460.47;5026858;28;20144;-72
2023/01/06 06:41:46;;;;;;;6.68;1.40;;;;;;;9.63;98.01;101454.91;5026982;28;20055;-72
2023/01/06 06:44:12;;;;;;;1.50;1.40;;;;;;;9.61;98.65;101465.88;5008308;28;20026;-72
2023/01/06 06:46:37;;;;;;;3.22;1.73;;;;;;;9.59;99.17;101465.09;5026920;28;20049;-74
2023/01/06 06:49:03;;;;;;;3.33;1.20;;;;;;;9.60;99.01;101460.53;5026259;28;20400;-72
2023/01/06 06:51:29;;;;;;;1.58;1.35;;;;;;;9.61;99.37;101463.16;5008712;28;20114;-72
2023/01/06 06:53:54;;;;;;;1.95;1.17;;;;;;;9.60;99.33;101469.53;5025875;28;20072;-72
2023/01/06 06:56:20;;;;;;;2.83;1.60;;;;;;;9.59;99.76;101465.09;5025255;28;20041;-72
2023/01/06 06:58:46;;;;;;;6.68;1.50;;;;;;;9.58;99.99;101466.06;5007987;28;20025;-72
2023/01/06 07:01:14;;;;;;;3.75;1.40;;;;;;;9.59;100.00;101485.94;5026584;28;20076;-72
2023/01/06 07:03:39;;;;;;;1.67;1.33;;;;;;;9.57;100.00;101487.88;5026302;28;20689;-73
2023/01/06 07:06:07;;;;;;;2.72;1.60;;;;;;;9.53;100.00;101479.03;5026578;28;20064;-73
2023/01/06 07:08:33;;;;;;;3.40;1.80;;;;;;;9.55;100.00;101473.50;5026342;28;20539;-72
2023/01/06 07:10:58;;;;;;;9.13;2.22;;;;;;;9.53;100.00;101486.31;5026450;28;20047;-72
2023/01/06 07:13:24;;;;;;;4.28;2.15;;;;;;;9.51;100.00;101497.25;5026661;28;20034;-72
2023/01/06 07:15:49;;;;;;;3.13;1.80;;;;;;;9.48;100.00;101483.84;5040518;28;20088;-72
2023/01/06 07:18:14;;;;;;;3.35;2.00;;;;;;;9.45;100.00;101487.63;5025237;28;20029;-72
2023/01/06 07:20:40;;;;;;;3.20;1.75;;;;;;;9.43;100.00;101499.53;5024155;28;20111;-72
2023/01/06 07:23:05;;;;;;;2.42;1.88;;;;;;;9.35;100.00;101478.25;5026353;28;20120;-72
2023/01/06 07:25:32;;;;;;;3.80;2.03;;;;;;;9.34;100.00;101487.38;5025056;28;20040;-72
2023/01/06 07:27:59;;;;;;;2.40;2.03;;;;;;;9.32;100.00;101486.56;5025377;28;20033;-76
2023/01/06 07:30:26;;;;;;;4.07;2.20;;;;;;;9.31;100.00;101487.53;5025638;28;20083;-72
2023/01/06 07:32:52;;;;;;;5.40;2.35;;;;;;;9.30;100.00;101485.78;5037769;28;20048;-72
2023/01/06 07:35:17;;;;;;;3.25;2.30;;;;;;;9.32;100.00;101486.56;5045921;28;20033;-73
2023/01/06 07:37:43;;;;;;;5.65;2.58;;;;;;;9.30;100.00;101491.22;5037941;28;20055;-72
2023/01/06 07:40:09;;;;;;;2.20;2.00;;;;;;;9.31;100.00;101506.53;5034082;28;20317;-72
2023/01/06 07:42:35;;;;;;;2.40;2.03;;;;;;;9.30;100.00;101510.22;5049240;28;20059;-73
2023/01/06 07:45:01;;;;;;;4.85;2.35;;;;;;;9.26;100.00;101505.91;5043344;28;20208;-73
2023/01/06 07:47:26;;;;;;;2.88;2.00;;;;;;;9.28;100.00;101506.72;5030372;28;20021;-72
2023/01/06 07:49:51;;;;;;;4.50;1.98;;;;;;;9.29;100.00;101510.31;5028520;28;20111;-72
2023/01/06 07:52:17;;;;;;;2.88;2.00;;;;;;;9.28;100.00;101494.97;5028065;28;20034;-73
2023/01/06 07:54:42;;;;;;;2.42;1.88;;;;;;;9.30;100.00;101525.63;5012049;28;20218;-72
2023/01/06 07:57:07;;;;;;;3.63;2.30;;;;;;;9.30;100.00;101526.50;5028965;28;20438;-72
2023/01/06 07:59:33;;;;;;;3.25;2.33;;;;;;;9.31;100.00;101521.94;5028174;28;20488;-73
2023/01/06 08:01:58;;;;;;;3.22;2.15;;;;;;;9.31;100.00;101517.41;5028045;28;20038;-72
2023/01/06 08:04:23;;;;;;;4.45;2.00;;;;;;;9.34;100.00;101519.06;5028548;28;20477;-72
2023/01/06 08:06:49;;;;;;;3.15;2.00;;;;;;;9.35;100.00;101518.09;5027719;28;20045;-74
2023/01/06 08:09:14;;;;;;;3.85;2.17;;;;;;;9.37;100.00;101530.66;5029740;28;20072;-73
2023/01/06 08:11:39;;;;;;;2.75;2.03;;;;;;;9.38;100.00;101547.81;5028283;28;20543;-74
2023/01/06 08:14:05;;;;;;;4.38;2.15;;;;;;;9.39;100.00;101547.72;5032842;28;20396;-73
2023/01/06 08:16:30;;;;;;;2.58;1.75;;;;;;;9.44;100.00;101547.47;5029343;28;20065;-72
2023/01/06 08:18:56;;;;;;;5.88;2.30;;;;;;;9.44;100.00;101558.31;5028182;28;20111;-73
2023/01/06 08:21:21;;;;;;;2.17;1.88;;;;;;;9.48;100.00;101557.19;5029005;28;20360;-73
2023/01/06 08:23:47;;;;;;;3.15;2.47;;;;;;;9.52;100.00;101563.34;5027751;28;20413;-72
2023/01/06 08:26:14;;;;;;;4.50;2.10;;;;;;;9.55;100.00;101564.00;5027813;28;20112;-72
2023/01/06 08:28:44;;;;;;;2.88;2.67;;;;;;;9.58;100.00;101568.41;5010620;28;20055;-73
2023/01/06 08:31:17;;;;;;;4.47;2.78;;;;;;;9.60;100.00;101551.03;5029048;28;20037;-72
2023/01/06 08:33:43;;;;;;;3.28;2.88;;;;;;;9.63;100.00;101566.31;5028664;28;20068;-72
2023/01/06 08:36:13;;;;;;;4.93;3.13;;;;;;;9.64;100.00;101560.78;5040700;28;20035;-73
2023/01/06 08:38:39;;;;;;;5.25;2.53;;;;;;;9.66;100.00;101572.44;5048880;28;20045;-72
2023/01/06 08:41:04;;;;;;;7.20;3.28;;;;;;;9.70;100.00;101578.59;5041707;28;20045;-74
2023/01/06 08:43:30;;;;;;;6.38;3.33;;;;;;;9.71;100.00;101581.22;5026981;28;20106;-72
2023/01/06 08:46:01;;;;;;;6.60;4.18;;;;;;;9.75;100.00;101581.03;5033929;28;20028;-72
2023/01/06 08:48:27;;;;;;;8.10;3.40;;;;;;;9.75;100.00;101590.06;5031312;28;20223;-72
2023/01/06 08:50:52;;;;;;;4.40;3.78;;;;;;;9.77;100.00;101596.28;5029754;28;20128;-73
2023/01/06 08:53:17;;;;;;;5.13;3.60;;;;;;;9.76;100.00;101594.53;5047096;28;20123;-72
2023/01/06 08:55:43;;;;;;;5.07;4.00;;;;;;;9.83;100.00;101600.47;5029030;28;20502;-72
2023/01/06 08:58:09;;;;;;;3.92;3.45;;;;;;;9.84;100.00;101605.84;5028860;28;20025;-72
2023/01/06 09:00:39;;;;;;;5.97;4.32;;;;;;;9.86;100.00;101609.34;5028469;28;20024;-72
2023/01/06 09:03:04;;;;;;;4.65;4.13;;;;;;;9.88;100.00;101609.25;5027413;28;20515;-72
2023/01/06 09:05:30;;;;;;;4.75;4.07;;;;;;;9.87;100.00;101611.09;5028027;28;20064;-72
2023/01/06 09:07:55;;;;;;;4.90;4.13;;;;;;;9.89;100.00;101617.34;5027545;28;20029;-72
2023/01/06 09:10:21;;;;;;;5.38;4.50;;;;;;;9.92;100.00;101622.56;5028460;28;20032;-72
2023/01/06 09:12:47;;;;;;;5.90;5.25;;;;;;;9.92;100.00;101622.56;5027606;28;20037;-73
2023/01/06 09:15:12;;;;;;;5.90;5.03;;;;;;;9.92;100.00;101624.41;5028807;28;20033;-72
2023/01/06 09:17:38;;;;;;;6.15;5.03;;;;;;;9.85;100.00;101620.31;5046632;28;20059;-72
2023/01/06 09:20:04;;;;;;;5.97;4.72;;;;;;;9.82;100.00;101624.06;5046252;28;20492;-73
2023/01/06 09:22:30;;;;;;;5.82;4.90;;;;;;;9.79;100.00;101629.69;5029482;28;20131;-72
2023/01/06 09:24:55;;;;;;;7.03;4.82;;;;;;;9.78;100.00;101629.75;5033924;28;20216;-72
2023/01/06 09:27:21;;;;;;;6.65;4.65;;;;;;;9.74;100.00;101637.19;5027541;28;20607;-71
2023/01/06 09:29:46;;;;;;;6.75;5.28;;;;;;;9.72;100.00;101641.88;5026735;28;20524;-72
2023/01/06 09:32:12;;;;;;;7.00;5.32;;;;;;;9.70;100.00;101647.41;5027492;28;20132;-72
2023/01/06 09:34:38;;;;;;;9.48;6.07;;;;;;;9.71;100.00;101651.84;5027719;28;20042;-74
2023/01/06 09:37:03;;;;;;;6.25;4.95;;;;;;;9.76;100.00;101664.31;5027179;28;20393;-72
2023/01/06 09:39:29;;;;;;;5.28;4.72;;;;;;;9.83;100.00;101655.72;5026494;28;20053;-73
2023/01/06 09:42:16;;;;;;;8.10;5.78;;;;;;;9.91;100.00;101653.44;5027026;28;20037;-72
2023/01/06 09:44:48;;;;;;;9.57;5.18;;;;;;;10.05;100.00;101665.38;5031874;28;20373;-72
2023/01/06 09:47:19;;;;;;;6.68;4.38;;;;;;;10.13;100.00;101665.81;5027552;28;20033;-72
2023/01/06 09:50:06;;;;;;;5.93;4.75;;;;;;;10.19;100.00;101674.50;5027341;28;20319;-72
2023/01/06 09:52:40;;;;;;;7.13;5.55;;;;;;;10.27;100.00;101667.78;5025728;28;20037;-72
2023/01/06 09:55:11;;;;;;;6.88;4.28;;;;;;;10.34;100.00;101671.88;5027176;28;20037;-72
2023/01/06 09:57:42;;;;;;;6.75;4.68;;;;;;;10.39;100.00;101672.47;5028714;28;20392;-73
2023/01/06 10:00:32;;;;;;;5.43;4.57;;;;;;;10.46;100.00;101690.22;5039247;28;20124;-74
2023/01/06 10:02:58;;;;;;;7.45;4.90;;;;;;;10.48;100.00;101672.81;5046764;28;20043;-73
2023/01/06 10:06:05;;;;;;;10.10;5.20;;;;;;;10.53;99.56;101682.56;5031932;28;20033;-72
2023/01/06 10:08:43;;;;;;;7.78;4.70;;;;;;;10.53;99.03;101691.59;5004413;28;20138;-72
2023/01/06 10:11:14;;;;;;;12.90;5.05;;;;;;;10.57;98.91;101690.44;5027511;28;20152;-72
2023/01/06 10:14:20;;;;;;;5.75;4.30;;;;;;;10.62;99.13;101682.88;5030694;28;20036;-72
2023/01/06 10:17:27;;;;;;;5.47;4.38;;;;;;;10.68;98.45;101689.84;5025513;28;20543;-72
2023/01/06 10:20:31;;;;;;;10.13;5.03;;;;;;;10.69;98.13;101683.41;5025483;28;20045;-73
2023/01/06 10:23:13;;;;;;;5.15;4.22;;;;;;;10.65;97.86;101679.13;5027329;28;20044;-72
2023/01/06 10:25:49;;;;;;;7.97;4.80;;;;;;;10.62;97.38;101685.59;5027224;28;20559;-73
2023/01/06 10:28:29;;;;;;;6.22;4.25;;;;;;;10.63;97.11;101686.47;5026319;28;20508;-72
2023/01/06 10:30:59;;;;;;;7.40;4.35;;;;;;;10.66;96.39;101689.03;5041829;28;20030;-72
2023/01/06 10:33:30;;;;;;;7.40;4.13;;;;;;;10.73;96.50;101683.16;5027742;28;20021;-73
2023/01/06 10:35:56;;;;;;;7.68;4.43;;;;;;;10.80;96.24;101683.66;5026558;28;20038;-73
2023/01/06 10:38:32;;;;;;;4.60;4.10;;;;;;;10.94;97.15;101680.09;5025456;28;20111;-75
2023/01/06 10:41:16;;;;;;;7.10;4.15;;;;;;;11.22;98.64;101671.97;5026630;28;20411;-74
2023/01/06 10:43:42;;;;;;;12.85;3.78;;;;;;;11.52;95.16;101679.22;5029936;28;20045;-72
2023/01/06 10:46:08;;;;;;;8.63;3.20;;;;;;;11.67;92.38;101672.78;5027103;28;20079;-72
2023/01/06 10:48:34;;;;;;;6.13;2.90;;;;;;;11.77;90.49;101678.53;5026792;28;20124;-72
2023/01/06 10:51:41;;;;;;;5.55;2.38;;;;;;;11.80;92.12;101681.06;5025921;28;20105;-73
2023/01/06 10:54:13;;;;;;;4.30;2.55;;;;;;;11.83;90.45;101680.00;5026568;28;20095;-72
2023/01/06 10:56:42;;;;;;;;;;;;;;;11.86;91.87;101675.25;5027002;28;20388;-72
2023/01/06 10:59:09;;;;;;;6.03;2.83;;;;;;;11.82;86.97;101680.97;5028955;28;20019;-72
2023/01/06 11:01:47;;;;;;;6.05;2.97;;;;;;;11.79;88.44;101675.69;5045666;28;20057;-72
2023/01/06 11:04:14;;;;;;;7.40;3.25;;;;;;;11.70;87.18;101682.59;5044032;28;20120;-72
2023/01/06 11:06:57;;;;;;;6.68;3.60;;;;;;;11.76;87.79;101684.97;5026231;28;20048;-73
2023/01/06 11:09:28;;;;;;;4.30;2.63;;;;;;;11.79;88.41;101681.16;5025674;28;20374;-72
2023/01/06 11:11:58;;;;;;;6.75;3.22;;;;;;;11.80;87.94;101688.34;5027216;28;20087;-74
2023/01/06 11:14:31;;;;;;;5.25;2.85;;;;;;;11.80;88.32;101688.34;5033185;28;20457;-75
2023/01/06 11:17:06;;;;;;;5.53;2.92;;;;;;;11.85;87.70;101689.00;5029310;28;20107;-74
2023/01/06 11:19:42;;;;;;;8.70;3.20;;;;;;;11.88;86.17;101689.66;5030243;28;20187;-73
2023/01/06 11:22:32;;;;;;;7.00;3.63;;;;;;;11.94;87.83;101683.81;5029826;28;20403;-72
2023/01/06 11:24:58;;;;;;;9.55;4.75;;;;;;;11.94;84.86;101674.75;5030521;28;20030;-74
2023/01/06 11:27:23;;;;;;;5.20;3.97;;;;;;;11.96;85.71;101680.97;5028798;28;20559;-72
2023/01/06 11:29:48;;;;;;;4.43;3.80;;;;;;;11.97;85.72;101674.53;5030203;28;20533;-72
2023/01/06 11:32:21;;;;;;;6.82;4.05;;;;;;;11.98;82.79;101676.28;5016837;28;20033;-71
2023/01/06 11:35:05;;;;;;;6.03;3.72;;;;;;;11.95;85.04;101671.06;5030148;28;20040;-73
2023/01/06 11:37:40;;;;;;;7.88;4.30;;;;;;;11.95;83.10;101668.31;5030634;28;20060;-72
2023/01/06 11:40:20;;;;;;;6.38;3.80;;;;;;;11.98;83.76;101673.56;5029950;28;20149;-72
2023/01/06 11:42:52;;;;;;;6.00;3.63;;;;;;;11.95;82.84;101673.78;5029455;28;20465;-71